Hovedside
METAR-TAF:

METAR-TAF

Lufthavner :

Kolding, Danmark

Vamdrup

breddegrad: 55-26N, lengdegrad: 009-20E, høyde over havet: 44 m

Gjeldene værobservasjon

Denne rapporten ble laget for 14 minutter siden, klokken 22:20 UTC
Vind 4 kt fra Nord
Temperatur 15°C
Luftfuktighet 94%
Trykk 1010 hPa

METAR: EKVD 242220Z AUTO 35004KT //// ///////// 15/14 Q1010

Tid: 00:34 (22:34 UTC)

Varsel

Denne rapporten ble laget for 10 timer og 42 minutter siden, klokken 11:52 UTC
Varsel gyldig fra 24. klokken 12 UTC til 24. klokken 16 UTC
Vind 8 kt fra Øst-nordøst
Sikt: 9000 m
Spredte skyer i en høyde av 2000 ft
Midlertidig
fra 24. klokken 12 UTC til 24. klokken 16 UTC
Brutte skyer i en høyde av 1200 ft
Spredte skyer i en høyde av 2000 ft, Bygeskyer.
regnbyger

TAF: EKVD 241152Z 2412/2416 06008KT 9000 SCT020 TEMPO 2412/2416 SHRA BKN012 SCT020CB

Værobservasjoner og værvarsel for over 4000 flyplasser (METAR- og TAF-rapporter).

Tilgjengelige stasjoner er representert av de røde og gule prikkene på kartet.

Hold musepekeren over prikken for å se navnet på stasjonen.

Klikk så for å se værobservasjoner og -varsler.

For å forandre kartet kan du klikke på den grønne knappen med svart kryss for å zoome inn, på den grønne knappen med strek for å zoome ut, eller på de grønne pilene for å se tilstøtende kart.


METAR-TAF: